sensor_id;sensor_type;location;lat;lon;timestamp;pressure;altitude;pressure_sealevel;temperature;humidity
57086;BME280;42964;42.910;23.792;2023-05-08T00:04:48;97775.97;;;11.44;83.51
57086;BME280;42964;42.910;23.792;2023-05-08T00:09:47;97712.94;;;11.03;83.68
57086;BME280;42964;42.910;23.792;2023-05-08T00:14:46;97764.78;;;11.25;83.95
57086;BME280;42964;42.910;23.792;2023-05-08T00:19:45;97774.31;;;11.28;83.54
57086;BME280;42964;42.910;23.792;2023-05-08T00:24:44;97737.13;;;11.12;83.86
57086;BME280;42964;42.910;23.792;2023-05-08T00:29:42;97778.66;;;11.18;84.97
57086;BME280;42964;42.910;23.792;2023-05-08T00:34:41;97785.56;;;11.25;84.21
57086;BME280;42964;42.910;23.792;2023-05-08T00:39:40;97785.56;;;11.22;84.67
57086;BME280;42964;42.910;23.792;2023-05-08T00:44:39;97747.59;;;10.92;84.85
57086;BME280;42964;42.910;23.792;2023-05-08T00:49:38;97790.78;;;11.20;84.94
57086;BME280;42964;42.910;23.792;2023-05-08T00:54:38;97796.00;;;11.13;85.10
57086;BME280;42964;42.910;23.792;2023-05-08T00:59:38;97702.63;;;10.42;86.03
57086;BME280;42964;42.910;23.792;2023-05-08T01:04:39;97800.34;;;10.91;86.07
57086;BME280;42964;42.910;23.792;2023-05-08T01:09:39;97793.41;;;10.96;85.42
57086;BME280;42964;42.910;23.792;2023-05-08T01:35:33;97784.75;;;10.98;85.27
57086;BME280;42964;42.910;23.792;2023-05-08T01:46:12;97776.13;;;10.73;86.57
57086;BME280;42964;42.910;23.792;2023-05-08T01:51:17;97785.66;;;10.76;86.11
57086;BME280;42964;42.910;23.792;2023-05-08T01:56:22;97777.00;;;10.74;86.71
57086;BME280;42964;42.910;23.792;2023-05-08T02:01:23;97781.31;;;10.70;86.81
57086;BME280;42964;42.910;23.792;2023-05-08T02:06:23;97767.50;;;10.62;87.24
57086;BME280;42964;42.910;23.792;2023-05-08T02:11:23;97785.66;;;10.54;88.09
57086;BME280;42964;42.910;23.792;2023-05-08T02:16:24;97783.94;;;10.59;88.59
57086;BME280;42964;42.910;23.792;2023-05-08T02:21:25;97788.25;;;10.53;87.68
57086;BME280;42964;42.910;23.792;2023-05-08T02:26:26;97785.66;;;10.56;88.34
57086;BME280;42964;42.910;23.792;2023-05-08T02:31:26;97796.03;;;10.51;88.59
57086;BME280;42964;42.910;23.792;2023-05-08T02:36:26;97799.47;;;10.52;88.11
57086;BME280;42964;42.910;23.792;2023-05-08T02:41:31;97794.31;;;10.44;88.40
57086;BME280;42964;42.910;23.792;2023-05-08T02:57:05;97789.09;;;10.23;89.03
57086;BME280;42964;42.910;23.792;2023-05-08T03:02:19;97796.03;;;10.17;89.24
57086;BME280;42964;42.910;23.792;2023-05-08T03:07:22;97798.59;;;10.16;89.31
57086;BME280;42964;42.910;23.792;2023-05-08T03:12:25;97793.41;;;10.08;90.25
57086;BME280;42964;42.910;23.792;2023-05-08T03:17:27;97793.44;;;10.05;90.59
57086;BME280;42964;42.910;23.792;2023-05-08T03:22:29;97802.91;;;9.97;90.43
57086;BME280;42964;42.910;23.792;2023-05-08T03:27:29;97799.47;;;9.98;90.37
57086;BME280;42964;42.910;23.792;2023-05-08T03:32:30;97799.47;;;10.01;90.33
57086;BME280;42964;42.910;23.792;2023-05-08T03:37:31;97723.34;;;9.57;90.67
57086;BME280;42964;42.910;23.792;2023-05-08T03:42:31;97808.97;;;10.19;89.82
57086;BME280;42964;42.910;23.792;2023-05-08T03:47:30;97801.22;;;10.25;89.31
57086;BME280;42964;42.910;23.792;2023-05-08T03:52:31;97791.69;;;10.26;89.68
57086;BME280;42964;42.910;23.792;2023-05-08T03:57:35;97802.09;;;10.36;88.96
57086;BME280;42964;42.910;23.792;2023-05-08T04:02:44;97801.22;;;10.53;88.50
57086;BME280;42964;42.910;23.792;2023-05-08T04:13:08;97808.13;;;10.77;87.89
57086;BME280;42964;42.910;23.792;2023-05-08T04:18:14;97800.34;;;10.98;87.80
57086;BME280;42964;42.910;23.792;2023-05-08T04:23:18;97803.75;;;11.23;87.46
57086;BME280;42964;42.910;23.792;2023-05-08T04:28:19;97805.38;;;11.52;86.40
57086;BME280;42964;42.910;23.792;2023-05-08T04:33:19;97801.81;;;11.76;84.90
57086;BME280;42964;42.910;23.792;2023-05-08T04:38:18;97818.19;;;11.94;84.25
57086;BME280;42964;42.910;23.792;2023-05-08T04:43:17;97814.63;;;12.10;83.52
57086;BME280;42964;42.910;23.792;2023-05-08T04:48:16;97803.25;;;12.31;83.59
57086;BME280;42964;42.910;23.792;2023-05-08T04:53:16;97808.22;;;12.62;82.64
57086;BME280;42964;42.910;23.792;2023-05-08T04:58:15;97801.88;;;12.92;81.77
57086;BME280;42964;42.910;23.792;2023-05-08T05:03:14;97799.06;;;13.12;80.28
57086;BME280;42964;42.910;23.792;2023-05-08T05:08:13;97786.72;;;13.28;79.71
57086;BME280;42964;42.910;23.792;2023-05-08T05:13:12;97768.47;;;13.31;78.52
57086;BME280;42964;42.910;23.792;2023-05-08T05:18:10;97782.81;;;13.69;76.60
57086;BME280;42964;42.910;23.792;2023-05-08T05:23:10;97778.16;;;13.91;75.00
57086;BME280;42964;42.910;23.792;2023-05-08T05:28:09;97785.75;;;14.06;75.61
57086;BME280;42964;42.910;23.792;2023-05-08T05:33:08;97773.94;;;14.41;74.60
57086;BME280;42964;42.910;23.792;2023-05-08T05:38:07;97769.94;;;14.73;73.10
57086;BME280;42964;42.910;23.792;2023-05-08T05:43:06;97765.91;;;15.03;71.62
57086;BME280;42964;42.910;23.792;2023-05-08T05:48:04;97762.28;;;15.10;71.75
57086;BME280;42964;42.910;23.792;2023-05-08T05:53:03;97764.47;;;15.33;70.48
57086;BME280;42964;42.910;23.792;2023-05-08T05:58:03;97754.28;;;15.63;69.71
57086;BME280;42964;42.910;23.792;2023-05-08T06:03:01;97756.25;;;15.94;66.43
57086;BME280;42964;42.910;23.792;2023-05-08T06:08:01;97745.16;;;16.20;66.60
57086;BME280;42964;42.910;23.792;2023-05-08T06:13:05;97746.03;;;16.56;66.90
57086;BME280;42964;42.910;23.792;2023-05-08T06:18:04;97745.69;;;16.70;64.10
57086;BME280;42964;42.910;23.792;2023-05-08T06:23:04;97735.16;;;16.71;62.98
57086;BME280;42964;42.910;23.792;2023-05-08T06:28:03;97743.38;;;16.93;61.13
57086;BME280;42964;42.910;23.792;2023-05-08T06:33:04;97735.50;;;17.25;58.54
57086;BME280;42964;42.910;23.792;2023-05-08T06:38:03;97735.13;;;17.68;57.71
57086;BME280;42964;42.910;23.792;2023-05-08T06:43:02;97738.38;;;18.06;55.77
57086;BME280;42964;42.910;23.792;2023-05-08T06:48:01;97733.31;;;18.00;55.59
57086;BME280;42964;42.910;23.792;2023-05-08T06:52:59;97742.25;;;18.23;56.03
57086;BME280;42964;42.910;23.792;2023-05-08T06:57:58;97738.09;;;18.42;56.24
57086;BME280;42964;42.910;23.792;2023-05-08T07:02:57;97739.19;;;18.61;55.34
57086;BME280;42964;42.910;23.792;2023-05-08T07:07:56;97725.84;;;18.94;55.59
57086;BME280;42964;42.910;23.792;2023-05-08T07:12:55;97728.34;;;19.22;54.26
57086;BME280;42964;42.910;23.792;2023-05-08T07:17:54;97702.16;;;19.19;54.13
57086;BME280;42964;42.910;23.792;2023-05-08T07:22:53;97727.81;;;19.61;54.07
57086;BME280;42964;42.910;23.792;2023-05-08T07:27:52;97730.47;;;19.83;53.58
57086;BME280;42964;42.910;23.792;2023-05-08T07:32:51;97729.56;;;20.06;53.03
57086;BME280;42964;42.910;23.792;2023-05-08T07:37:50;97728.53;;;20.11;54.32
57086;BME280;42964;42.910;23.792;2023-05-08T07:42:49;97725.78;;;20.36;53.39
57086;BME280;42964;42.910;23.792;2023-05-08T07:52:48;97701.00;;;20.62;53.16
57086;BME280;42964;42.910;23.792;2023-05-08T07:57:47;97712.72;;;20.96;51.73
57086;BME280;42964;42.910;23.792;2023-05-08T08:02:46;97727.56;;;21.19;51.87
57086;BME280;42964;42.910;23.792;2023-05-08T08:07:45;97719.94;;;21.52;51.59
57086;BME280;42964;42.910;23.792;2023-05-08T08:12:44;97710.25;;;21.71;48.45
57086;BME280;42964;42.910;23.792;2023-05-08T08:17:43;97713.66;;;22.11;47.16
57086;BME280;42964;42.910;23.792;2023-05-08T08:22:42;97704.28;;;22.41;46.45
57086;BME280;42964;42.910;23.792;2023-05-08T08:27:41;97703.06;;;22.65;45.76
57086;BME280;42964;42.910;23.792;2023-05-08T08:32:40;97711.31;;;23.11;44.19
57086;BME280;42964;42.910;23.792;2023-05-08T08:37:39;97525.47;;;22.22;43.19
57086;BME280;42964;42.910;23.792;2023-05-08T08:42:38;97706.28;;;23.40;42.69
57086;BME280;42964;42.910;23.792;2023-05-08T08:47:43;97699.09;;;23.75;40.90
57086;BME280;42964;42.910;23.792;2023-05-08T09:03:04;97628.78;;;25.19;38.20
57086;BME280;42964;42.910;23.792;2023-05-08T09:08:05;97690.22;;;24.99;37.19
57086;BME280;42964;42.910;23.792;2023-05-08T09:13:07;97683.19;;;24.53;37.22
57086;BME280;42964;42.910;23.792;2023-05-08T09:18:06;97679.47;;;24.25;38.68
57086;BME280;42964;42.910;23.792;2023-05-08T09:23:05;97666.78;;;23.69;38.55
57086;BME280;42964;42.910;23.792;2023-05-08T09:33:13;97702.03;;;23.20;39.41
57086;BME280;42964;42.910;23.792;2023-05-08T09:38:31;97738.66;;;21.85;46.84
57086;BME280;42964;42.910;23.792;2023-05-08T09:43:30;97732.50;;;20.65;52.30
57086;BME280;42964;42.910;23.792;2023-05-08T09:48:36;97719.69;;;19.68;56.59
57086;BME280;42964;42.910;23.792;2023-05-08T09:53:35;97729.22;;;19.23;59.13
57086;BME280;42964;42.910;23.792;2023-05-08T09:58:41;97740.59;;;19.47;61.87
57086;BME280;42964;42.910;23.792;2023-05-08T10:03:49;97741.09;;;20.04;61.53
57086;BME280;42964;42.910;23.792;2023-05-08T10:09:05;97742.72;;;20.52;57.04
57086;BME280;42964;42.910;23.792;2023-05-08T10:14:04;97760.34;;;20.92;55.38
57086;BME280;42964;42.910;23.792;2023-05-08T10:19:06;97762.16;;;21.12;51.92
57086;BME280;42964;42.910;23.792;2023-05-08T10:24:18;97759.28;;;21.38;51.31
57086;BME280;42964;42.910;23.792;2023-05-08T10:29:20;97776.78;;;21.20;51.52
57086;BME280;42964;42.910;23.792;2023-05-08T10:34:22;97743.53;;;21.16;51.06
57086;BME280;42964;42.910;23.792;2023-05-08T10:39:24;97794.16;;;21.46;50.36
57086;BME280;42964;42.910;23.792;2023-05-08T10:44:24;97787.66;;;21.12;51.85
57086;BME280;42964;42.910;23.792;2023-05-08T10:49:33;97789.28;;;20.74;53.21
57086;BME280;42964;42.910;23.792;2023-05-08T10:54:40;97793.06;;;20.88;53.50
57086;BME280;42964;42.910;23.792;2023-05-08T10:59:46;97735.94;;;20.67;53.42
57086;BME280;42964;42.910;23.792;2023-05-08T11:04:45;97785.31;;;21.66;50.36
57086;BME280;42964;42.910;23.792;2023-05-08T11:09:46;97754.34;;;21.50;48.19
57086;BME280;42964;42.910;23.792;2023-05-08T11:19:59;97772.84;;;21.30;47.74
57086;BME280;42964;42.910;23.792;2023-05-08T11:25:05;97785.47;;;20.81;49.50
57086;BME280;42964;42.910;23.792;2023-05-08T11:30:39;97785.69;;;20.97;49.33
57086;BME280;42964;42.910;23.792;2023-05-08T11:35:50;97790.09;;;20.76;49.01
57086;BME280;42964;42.910;23.792;2023-05-08T11:46:06;97785.22;;;20.21;51.58
57086;BME280;42964;42.910;23.792;2023-05-08T11:51:08;97700.91;;;19.77;50.51
57086;BME280;42964;42.910;23.792;2023-05-08T11:56:07;97771.72;;;20.52;49.58
57086;BME280;42964;42.910;23.792;2023-05-08T12:01:06;97779.00;;;20.00;50.31
57086;BME280;42964;42.910;23.792;2023-05-08T12:06:06;97779.50;;;19.64;52.16
57086;BME280;42964;42.910;23.792;2023-05-08T12:11:05;97762.44;;;19.26;52.07
57086;BME280;42964;42.910;23.792;2023-05-08T12:16:04;97805.69;;;19.18;53.36
57086;BME280;42964;42.910;23.792;2023-05-08T12:21:03;97750.31;;;18.43;55.11
57086;BME280;42964;42.910;23.792;2023-05-08T12:26:02;97796.00;;;18.66;57.58
57086;BME280;42964;42.910;23.792;2023-05-08T12:31:01;97814.34;;;18.40;62.11
57086;BME280;42964;42.910;23.792;2023-05-08T12:36:00;97820.00;;;17.67;64.75
57086;BME280;42964;42.910;23.792;2023-05-08T12:41:01;97834.22;;;17.27;67.99
57086;BME280;42964;42.910;23.792;2023-05-08T12:46:03;97848.56;;;16.77;72.21
57086;BME280;42964;42.910;23.792;2023-05-08T12:51:03;97845.75;;;15.66;81.09
57086;BME280;42964;42.910;23.792;2023-05-08T12:56:03;97800.00;;;14.43;91.01
57086;BME280;42964;42.910;23.792;2023-05-08T13:01:11;97866.72;;;14.62;94.85
57086;BME280;42964;42.910;23.792;2023-05-08T13:06:20;97875.34;;;14.69;95.29
57086;BME280;42964;42.910;23.792;2023-05-08T13:11:30;97877.84;;;14.76;97.31
57086;BME280;42964;42.910;23.792;2023-05-08T13:16:29;97865.34;;;14.95;99.43
57086;BME280;42964;42.910;23.792;2023-05-08T13:21:28;97868.25;;;15.30;100.00
57086;BME280;42964;42.910;23.792;2023-05-08T13:26:27;97874.84;;;15.49;100.00
57086;BME280;42964;42.910;23.792;2023-05-08T13:31:26;97889.25;;;15.23;98.62
57086;BME280;42964;42.910;23.792;2023-05-08T13:36:25;97884.03;;;14.69;97.86
57086;BME280;42964;42.910;23.792;2023-05-08T13:41:24;97892.28;;;14.40;95.88
57086;BME280;42964;42.910;23.792;2023-05-08T13:46:23;97889.19;;;14.12;95.29
57086;BME280;42964;42.910;23.792;2023-05-08T13:51:22;97895.41;;;14.03;96.59
57086;BME280;42964;42.910;23.792;2023-05-08T13:56:21;97908.50;;;13.98;95.82
57086;BME280;42964;42.910;23.792;2023-05-08T14:01:20;97893.88;;;13.84;97.50
57086;BME280;42964;42.910;23.792;2023-05-08T14:06:19;97928.59;;;13.92;98.10
57086;BME280;42964;42.910;23.792;2023-05-08T14:11:18;97933.75;;;13.93;98.37
57086;BME280;42964;42.910;23.792;2023-05-08T14:16:17;97959.00;;;13.94;99.42
57086;BME280;42964;42.910;23.792;2023-05-08T14:21:16;97954.44;;;14.12;100.00
57086;BME280;42964;42.910;23.792;2023-05-08T14:26:15;97836.84;;;13.53;100.00
57086;BME280;42964;42.910;23.792;2023-05-08T14:31:14;97937.44;;;14.47;100.00
57086;BME280;42964;42.910;23.792;2023-05-08T14:36:13;97955.59;;;14.56;100.00
57086;BME280;42964;42.910;23.792;2023-05-08T14:41:11;97957.66;;;14.34;99.45
57086;BME280;42964;42.910;23.792;2023-05-08T14:46:10;97948.16;;;14.27;100.00
57086;BME280;42964;42.910;23.792;2023-05-08T14:51:10;97957.88;;;14.12;99.05
57086;BME280;42964;42.910;23.792;2023-05-08T14:56:11;97923.56;;;13.73;98.78
57086;BME280;42964;42.910;23.792;2023-05-08T15:01:10;97942.28;;;14.09;100.00
57086;BME280;42964;42.910;23.792;2023-05-08T15:06:08;97937.97;;;14.07;100.00
57086;BME280;42964;42.910;23.792;2023-05-08T15:11:07;97947.66;;;13.97;100.00
57086;BME280;42964;42.910;23.792;2023-05-08T15:16:06;97943.25;;;14.01;100.00
57086;BME280;42964;42.910;23.792;2023-05-08T15:21:05;97936.34;;;13.96;100.00
57086;BME280;42964;42.910;23.792;2023-05-08T15:26:04;97939.88;;;13.92;100.00
57086;BME280;42964;42.910;23.792;2023-05-08T15:31:03;97954.00;;;13.73;100.00
57086;BME280;42964;42.910;23.792;2023-05-08T15:36:02;97941.81;;;13.75;100.00
57086;BME280;42964;42.910;23.792;2023-05-08T15:41:01;97862.19;;;13.40;100.00
57086;BME280;42964;42.910;23.792;2023-05-08T15:46:00;97936.41;;;13.90;100.00
57086;BME280;42964;42.910;23.792;2023-05-08T15:50:59;97939.03;;;13.92;100.00
57086;BME280;42964;42.910;23.792;2023-05-08T15:55:58;97936.50;;;13.81;100.00
57086;BME280;42964;42.910;23.792;2023-05-08T16:00:57;97947.13;;;13.63;99.58
57086;BME280;42964;42.910;23.792;2023-05-08T16:05:56;97945.47;;;13.55;99.93
57086;BME280;42964;42.910;23.792;2023-05-08T16:10:54;97932.47;;;13.54;99.88
57086;BME280;42964;42.910;23.792;2023-05-08T16:15:53;97934.19;;;13.56;99.86
57086;BME280;42964;42.910;23.792;2023-05-08T16:20:52;97938.38;;;13.70;99.39
57086;BME280;42964;42.910;23.792;2023-05-08T16:25:51;97935.72;;;13.76;99.54
57086;BME280;42964;42.910;23.792;2023-05-08T16:30:50;97939.88;;;13.94;100.00
57086;BME280;42964;42.910;23.792;2023-05-08T16:35:49;97939.72;;;14.06;99.96
57086;BME280;42964;42.910;23.792;2023-05-08T16:40:47;97940.47;;;14.16;99.98
57086;BME280;42964;42.910;23.792;2023-05-08T16:45:48;97935.13;;;14.24;100.00
57086;BME280;42964;42.910;23.792;2023-05-08T16:50:47;97942.78;;;14.40;100.00
57086;BME280;42964;42.910;23.792;2023-05-08T16:55:46;97939.25;;;14.43;100.00
57086;BME280;42964;42.910;23.792;2023-05-08T17:00:45;97956.97;;;14.18;98.92
57086;BME280;42964;42.910;23.792;2023-05-08T17:05:44;97953.72;;;13.96;99.31
57086;BME280;42964;42.910;23.792;2023-05-08T17:10:43;97969.31;;;14.04;100.00
57086;BME280;42964;42.910;23.792;2023-05-08T17:15:41;97967.53;;;14.09;99.14
57086;BME280;42964;42.910;23.792;2023-05-08T17:20:40;97963.31;;;13.98;99.00
57086;BME280;42964;42.910;23.792;2023-05-08T17:25:40;97962.34;;;14.03;100.00
57086;BME280;42964;42.910;23.792;2023-05-08T17:30:39;97977.91;;;14.15;100.00
57086;BME280;42964;42.910;23.792;2023-05-08T17:35:37;97984.84;;;14.16;99.66
57086;BME280;42964;42.910;23.792;2023-05-08T17:40:36;97995.31;;;14.13;99.88
57086;BME280;42964;42.910;23.792;2023-05-08T17:45:36;98005.72;;;14.16;99.63
57086;BME280;42964;42.910;23.792;2023-05-08T17:50:35;98010.13;;;14.11;98.89
57086;BME280;42964;42.910;23.792;2023-05-08T17:55:37;98005.81;;;14.05;98.04
57086;BME280;42964;42.910;23.792;2023-05-08T18:00:35;98009.28;;;14.07;99.78
57086;BME280;42964;42.910;23.792;2023-05-08T18:05:36;97979.16;;;13.78;98.28
57086;BME280;42964;42.910;23.792;2023-05-08T18:10:35;98031.22;;;13.88;98.14
57086;BME280;42964;42.910;23.792;2023-05-08T18:15:34;98027.72;;;13.92;98.37
57086;BME280;42964;42.910;23.792;2023-05-08T18:20:36;98042.66;;;13.77;97.94
57086;BME280;42964;42.910;23.792;2023-05-08T18:25:35;98041.75;;;13.80;99.14
57086;BME280;42964;42.910;23.792;2023-05-08T18:30:34;98005.47;;;13.49;98.29
57086;BME280;42964;42.910;23.792;2023-05-08T18:35:34;97992.50;;;13.43;98.15
57086;BME280;42964;42.910;23.792;2023-05-08T18:40:32;98055.72;;;13.70;99.48
57086;BME280;42964;42.910;23.792;2023-05-08T18:45:31;98075.72;;;13.71;100.00
57086;BME280;42964;42.910;23.792;2023-05-08T18:50:30;98068.72;;;13.74;99.21
57086;BME280;42964;42.910;23.792;2023-05-08T18:55:29;98059.22;;;13.69;100.00
57086;BME280;42964;42.910;23.792;2023-05-08T19:00:28;98073.06;;;13.78;100.00
57086;BME280;42964;42.910;23.792;2023-05-08T19:05:27;98076.44;;;13.90;100.00
57086;BME280;42964;42.910;23.792;2023-05-08T19:10:26;98083.41;;;13.89;99.25
57086;BME280;42964;42.910;23.792;2023-05-08T19:15:24;98080.75;;;13.92;99.20
57086;BME280;42964;42.910;23.792;2023-05-08T19:20:23;98086.81;;;13.94;98.93
57086;BME280;42964;42.910;23.792;2023-05-08T19:25:22;98084.31;;;13.84;98.77
57086;BME280;42964;42.910;23.792;2023-05-08T19:30:21;98091.31;;;13.77;99.05
57086;BME280;42964;42.910;23.792;2023-05-08T19:35:20;98062.72;;;13.63;98.96
57086;BME280;42964;42.910;23.792;2023-05-08T19:40:19;98093.88;;;13.82;98.29
57086;BME280;42964;42.910;23.792;2023-05-08T19:45:18;98087.75;;;13.87;98.27
57086;BME280;42964;42.910;23.792;2023-05-08T19:50:16;98088.69;;;13.80;98.31
57086;BME280;42964;42.910;23.792;2023-05-08T19:55:16;98088.78;;;13.69;98.68
57086;BME280;42964;42.910;23.792;2023-05-08T20:00:16;98079.34;;;13.47;99.58
57086;BME280;42964;42.910;23.792;2023-05-08T20:05:15;98093.25;;;13.50;99.48
57086;BME280;42964;42.910;23.792;2023-05-08T20:10:13;98089.75;;;13.57;99.74
57086;BME280;42964;42.910;23.792;2023-05-08T20:15:12;98088.88;;;13.57;99.73
57086;BME280;42964;42.910;23.792;2023-05-08T20:20:11;98100.09;;;13.65;99.51
57086;BME280;42964;42.910;23.792;2023-05-08T20:25:10;98098.31;;;13.73;99.16
57086;BME280;42964;42.910;23.792;2023-05-08T20:30:09;98095.63;;;13.83;98.46
57086;BME280;42964;42.910;23.792;2023-05-08T20:35:08;98078.19;;;13.86;98.68
57086;BME280;42964;42.910;23.792;2023-05-08T20:40:07;98082.50;;;13.90;98.04
57086;BME280;42964;42.910;23.792;2023-05-08T20:45:07;98079.41;;;13.42;98.33
57086;BME280;42964;42.910;23.792;2023-05-08T20:50:06;98077.75;;;13.29;98.86
57086;BME280;42964;42.910;23.792;2023-05-08T20:55:06;98045.00;;;12.86;99.68
57086;BME280;42964;42.910;23.792;2023-05-08T21:00:06;98073.50;;;13.11;100.00
57086;BME280;42964;42.910;23.792;2023-05-08T21:05:06;98076.16;;;13.09;100.00
57086;BME280;42964;42.910;23.792;2023-05-08T21:10:05;98069.06;;;13.27;100.00
57086;BME280;42964;42.910;23.792;2023-05-08T21:15:05;98072.59;;;13.20;100.00
57086;BME280;42964;42.910;23.792;2023-05-08T21:20:05;98066.50;;;13.24;99.58
57086;BME280;42964;42.910;23.792;2023-05-08T21:25:04;98043.94;;;13.21;99.73
57086;BME280;42964;42.910;23.792;2023-05-08T21:30:03;98048.22;;;13.27;99.42
57086;BME280;42964;42.910;23.792;2023-05-08T21:35:03;98051.72;;;13.24;99.14
57086;BME280;42964;42.910;23.792;2023-05-08T21:40:02;98055.31;;;13.02;99.45
57086;BME280;42964;42.910;23.792;2023-05-08T21:45:02;98056.31;;;12.81;100.00
57086;BME280;42964;42.910;23.792;2023-05-08T21:50:01;98072.84;;;12.77;100.00
57086;BME280;42964;42.910;23.792;2023-05-08T21:55:01;98066.78;;;12.68;100.00
57086;BME280;42964;42.910;23.792;2023-05-08T22:00:00;98068.59;;;12.56;100.00
57086;BME280;42964;42.910;23.792;2023-05-08T22:04:58;98072.13;;;12.25;100.00
57086;BME280;42964;42.910;23.792;2023-05-08T22:09:57;98069.56;;;11.96;100.00
57086;BME280;42964;42.910;23.792;2023-05-08T22:14:56;98070.47;;;11.95;100.00
57086;BME280;42964;42.910;23.792;2023-05-08T22:19:55;98074.78;;;11.82;100.00
57086;BME280;42964;42.910;23.792;2023-05-08T22:24:54;98072.19;;;11.84;100.00
57086;BME280;42964;42.910;23.792;2023-05-08T22:29:53;98080.84;;;11.83;100.00
57086;BME280;42964;42.910;23.792;2023-05-08T22:34:52;98081.75;;;11.83;100.00
57086;BME280;42964;42.910;23.792;2023-05-08T22:39:53;98078.25;;;11.84;100.00
57086;BME280;42964;42.910;23.792;2023-05-08T22:44:51;98086.91;;;11.94;100.00
57086;BME280;42964;42.910;23.792;2023-05-08T22:49:50;98078.25;;;12.00;100.00
57086;BME280;42964;42.910;23.792;2023-05-08T22:54:50;98026.25;;;11.75;100.00
57086;BME280;42964;42.910;23.792;2023-05-08T22:59:48;98087.75;;;12.13;100.00
57086;BME280;42964;42.910;23.792;2023-05-08T23:04:47;98085.19;;;11.98;100.00
57086;BME280;42964;42.910;23.792;2023-05-08T23:09:47;98080.84;;;11.94;100.00
57086;BME280;42964;42.910;23.792;2023-05-08T23:14:46;98083.44;;;11.87;100.00
57086;BME280;42964;42.910;23.792;2023-05-08T23:19:45;98054.88;;;11.71;100.00
57086;BME280;42964;42.910;23.792;2023-05-08T23:24:44;98079.09;;;11.99;100.00
57086;BME280;42964;42.910;23.792;2023-05-08T23:29:43;98077.38;;;11.98;100.00
57086;BME280;42964;42.910;23.792;2023-05-08T23:34:42;98075.63;;;12.09;100.00
57086;BME280;42964;42.910;23.792;2023-05-08T23:39:41;98041.84;;;12.04;100.00
57086;BME280;42964;42.910;23.792;2023-05-08T23:44:40;98066.94;;;12.19;100.00
57086;BME280;42964;42.910;23.792;2023-05-08T23:49:39;98066.91;;;12.18;100.00
57086;BME280;42964;42.910;23.792;2023-05-08T23:54:38;98027.91;;;12.13;100.00
57086;BME280;42964;42.910;23.792;2023-05-08T23:59:37;98057.41;;;12.12;100.00
